sensor_id;sensor_type;location;lat;lon;timestamp;pressure;altitude;pressure_sealevel;temperature;humidity
57847;BME280;43675;50.030;21.952;2023-04-05T00:02:24;99168.86;;;-2.02;62.23
57847;BME280;43675;50.030;21.952;2023-04-05T00:04:51;99169.52;;;-2.05;62.23
57847;BME280;43675;50.030;21.952;2023-04-05T00:07:18;99165.55;;;-2.08;62.03
57847;BME280;43675;50.030;21.952;2023-04-05T00:09:44;99167.36;;;-2.11;62.39
57847;BME280;43675;50.030;21.952;2023-04-05T00:12:11;99164.25;;;-2.14;62.34
57847;BME280;43675;50.030;21.952;2023-04-05T00:14:37;99160.79;;;-2.17;62.48
57847;BME280;43675;50.030;21.952;2023-04-05T00:17:04;99156.33;;;-2.20;62.47
57847;BME280;43675;50.030;21.952;2023-04-05T00:19:30;99157.52;;;-2.22;62.49
57847;BME280;43675;50.030;21.952;2023-04-05T00:21:57;99154.83;;;-2.23;62.67
57847;BME280;43675;50.030;21.952;2023-04-05T00:24:23;99154.00;;;-2.24;62.64
57847;BME280;43675;50.030;21.952;2023-04-05T00:26:49;99154.80;;;-2.25;62.53
57847;BME280;43675;50.030;21.952;2023-04-05T00:29:16;99154.54;;;-2.26;62.95
57847;BME280;43675;50.030;21.952;2023-04-05T00:31:42;99149.36;;;-2.27;62.79
57847;BME280;43675;50.030;21.952;2023-04-05T00:34:09;99148.63;;;-2.29;63.01
57847;BME280;43675;50.030;21.952;2023-04-05T00:36:35;99150.69;;;-2.30;63.13
57847;BME280;43675;50.030;21.952;2023-04-05T00:39:02;99147.23;;;-2.33;63.05
57847;BME280;43675;50.030;21.952;2023-04-05T00:41:28;99152.50;;;-2.36;63.05
57847;BME280;43675;50.030;21.952;2023-04-05T00:43:54;99148.46;;;-2.38;63.06
57847;BME280;43675;50.030;21.952;2023-04-05T00:46:21;99145.88;;;-2.41;63.26
57847;BME280;43675;50.030;21.952;2023-04-05T00:48:48;99147.48;;;-2.43;63.36
57847;BME280;43675;50.030;21.952;2023-04-05T00:51:14;99145.23;;;-2.46;63.46
57847;BME280;43675;50.030;21.952;2023-04-05T00:53:41;99142.09;;;-2.48;63.47
57847;BME280;43675;50.030;21.952;2023-04-05T00:56:07;99139.72;;;-2.51;63.50
57847;BME280;43675;50.030;21.952;2023-04-05T00:58:34;99138.45;;;-2.55;63.49
57847;BME280;43675;50.030;21.952;2023-04-05T01:01:09;99138.83;;;-2.60;63.43
57847;BME280;43675;50.030;21.952;2023-04-05T01:03:37;99140.74;;;-2.62;63.66
57847;BME280;43675;50.030;21.952;2023-04-05T01:09:34;99134.89;;;-2.65;63.57
57847;BME280;43675;50.030;21.952;2023-04-05T01:11:40;99135.88;;;-2.67;63.76
57847;BME280;43675;50.030;21.952;2023-04-05T01:14:08;99136.45;;;-2.67;63.40
57847;BME280;43675;50.030;21.952;2023-04-05T01:16:34;99138.96;;;-2.70;63.66
57847;BME280;43675;50.030;21.952;2023-04-05T01:19:01;99134.92;;;-2.74;63.79
57847;BME280;43675;50.030;21.952;2023-04-05T01:21:36;99133.35;;;-2.77;63.72
57847;BME280;43675;50.030;21.952;2023-04-05T01:31:58;99130.14;;;-2.80;63.95
57847;BME280;43675;50.030;21.952;2023-04-05T01:34:32;99124.67;;;-2.82;64.06
57847;BME280;43675;50.030;21.952;2023-04-05T01:37:05;99126.10;;;-2.82;64.04
57847;BME280;43675;50.030;21.952;2023-04-05T01:39:33;99122.14;;;-2.83;64.10
57847;BME280;43675;50.030;21.952;2023-04-05T01:42:01;99122.44;;;-2.85;63.85
57847;BME280;43675;50.030;21.952;2023-04-05T01:44:28;99122.62;;;-2.87;64.16
57847;BME280;43675;50.030;21.952;2023-04-05T01:46:55;99122.16;;;-2.88;64.31
57847;BME280;43675;50.030;21.952;2023-04-05T01:49:22;99122.20;;;-2.89;64.07
57847;BME280;43675;50.030;21.952;2023-04-05T01:51:49;99121.02;;;-2.90;64.23
57847;BME280;43675;50.030;21.952;2023-04-05T01:54:16;99121.04;;;-2.87;64.35
57847;BME280;43675;50.030;21.952;2023-04-05T01:56:42;99119.30;;;-2.87;64.18
57847;BME280;43675;50.030;21.952;2023-04-05T01:59:09;99120.86;;;-2.87;64.27
57847;BME280;43675;50.030;21.952;2023-04-05T02:01:36;99120.66;;;-2.87;64.25
57847;BME280;43675;50.030;21.952;2023-04-05T02:04:02;99123.31;;;-2.87;64.44
57847;BME280;43675;50.030;21.952;2023-04-05T02:06:29;99124.91;;;-2.88;64.23
57847;BME280;43675;50.030;21.952;2023-04-05T02:08:55;99121.08;;;-2.88;64.20
57847;BME280;43675;50.030;21.952;2023-04-05T02:11:22;99122.35;;;-2.88;64.29
57847;BME280;43675;50.030;21.952;2023-04-05T02:13:48;99122.98;;;-2.88;64.19
57847;BME280;43675;50.030;21.952;2023-04-05T02:16:15;99123.52;;;-2.86;64.21
57847;BME280;43675;50.030;21.952;2023-04-05T02:18:41;99124.14;;;-2.84;64.35
57847;BME280;43675;50.030;21.952;2023-04-05T02:21:08;99125.17;;;-2.84;64.34
57847;BME280;43675;50.030;21.952;2023-04-05T02:23:35;99120.67;;;-2.85;64.38
57847;BME280;43675;50.030;21.952;2023-04-05T02:26:02;99119.63;;;-2.85;64.30
57847;BME280;43675;50.030;21.952;2023-04-05T02:28:28;99117.20;;;-2.85;64.35
57847;BME280;43675;50.030;21.952;2023-04-05T02:30:55;99112.45;;;-2.85;64.58
57847;BME280;43675;50.030;21.952;2023-04-05T02:33:21;99117.58;;;-2.86;64.25
57847;BME280;43675;50.030;21.952;2023-04-05T02:35:48;99116.06;;;-2.89;64.38
57847;BME280;43675;50.030;21.952;2023-04-05T02:38:15;99113.33;;;-2.92;64.30
57847;BME280;43675;50.030;21.952;2023-04-05T02:40:41;99113.54;;;-2.94;64.37
57847;BME280;43675;50.030;21.952;2023-04-05T02:43:08;99115.66;;;-2.97;64.41
57847;BME280;43675;50.030;21.952;2023-04-05T02:45:34;99111.02;;;-3.00;64.51
57847;BME280;43675;50.030;21.952;2023-04-05T02:48:01;99110.34;;;-3.03;64.47
57847;BME280;43675;50.030;21.952;2023-04-05T02:50:27;99105.79;;;-3.05;64.57
57847;BME280;43675;50.030;21.952;2023-04-05T02:52:54;99105.36;;;-3.08;64.43
57847;BME280;43675;50.030;21.952;2023-04-05T02:55:20;99104.04;;;-3.11;64.49
57847;BME280;43675;50.030;21.952;2023-04-05T02:57:47;99107.73;;;-3.14;64.54
57847;BME280;43675;50.030;21.952;2023-04-05T03:00:13;99108.30;;;-3.17;64.68
57847;BME280;43675;50.030;21.952;2023-04-05T03:02:40;99110.23;;;-3.19;64.61
57847;BME280;43675;50.030;21.952;2023-04-05T03:05:06;99107.39;;;-3.23;64.60
57847;BME280;43675;50.030;21.952;2023-04-05T03:07:33;99107.70;;;-3.25;64.68
57847;BME280;43675;50.030;21.952;2023-04-05T03:09:59;99109.23;;;-3.27;64.71
57847;BME280;43675;50.030;21.952;2023-04-05T03:12:26;99106.46;;;-3.29;64.59
57847;BME280;43675;50.030;21.952;2023-04-05T03:14:52;99106.44;;;-3.31;64.63
57847;BME280;43675;50.030;21.952;2023-04-05T03:17:18;99107.66;;;-3.33;64.65
57847;BME280;43675;50.030;21.952;2023-04-05T03:19:45;99108.34;;;-3.36;64.64
57847;BME280;43675;50.030;21.952;2023-04-05T03:22:11;99104.56;;;-3.37;64.81
57847;BME280;43675;50.030;21.952;2023-04-05T03:24:38;99106.69;;;-3.39;64.98
57847;BME280;43675;50.030;21.952;2023-04-05T03:27:04;99103.51;;;-3.43;64.97
57847;BME280;43675;50.030;21.952;2023-04-05T03:29:30;99108.45;;;-3.46;65.00
57847;BME280;43675;50.030;21.952;2023-04-05T03:31:57;99105.56;;;-3.50;65.08
57847;BME280;43675;50.030;21.952;2023-04-05T03:34:23;99104.75;;;-3.53;65.06
57847;BME280;43675;50.030;21.952;2023-04-05T03:36:50;99106.48;;;-3.55;65.10
57847;BME280;43675;50.030;21.952;2023-04-05T03:39:16;99107.32;;;-3.56;65.14
57847;BME280;43675;50.030;21.952;2023-04-05T03:41:43;99105.10;;;-3.59;65.18
57847;BME280;43675;50.030;21.952;2023-04-05T03:44:09;99106.14;;;-3.62;65.20
57847;BME280;43675;50.030;21.952;2023-04-05T03:46:35;99107.13;;;-3.65;65.13
57847;BME280;43675;50.030;21.952;2023-04-05T03:49:02;99102.94;;;-3.68;65.11
57847;BME280;43675;50.030;21.952;2023-04-05T03:51:28;99104.63;;;-3.69;65.13
57847;BME280;43675;50.030;21.952;2023-04-05T03:53:55;99107.99;;;-3.72;65.20
57847;BME280;43675;50.030;21.952;2023-04-05T03:56:21;99105.67;;;-3.74;65.26
57847;BME280;43675;50.030;21.952;2023-04-05T03:58:48;99104.76;;;-3.75;65.24
57847;BME280;43675;50.030;21.952;2023-04-05T04:01:14;99105.13;;;-3.78;65.11
57847;BME280;43675;50.030;21.952;2023-04-05T04:03:41;99110.64;;;-3.82;65.19
57847;BME280;43675;50.030;21.952;2023-04-05T04:06:07;99107.98;;;-3.84;65.27
57847;BME280;43675;50.030;21.952;2023-04-05T04:08:34;99112.30;;;-3.83;65.21
57847;BME280;43675;50.030;21.952;2023-04-05T04:11:00;99113.55;;;-3.83;65.10
57847;BME280;43675;50.030;21.952;2023-04-05T04:13:27;99110.06;;;-3.84;65.16
57847;BME280;43675;50.030;21.952;2023-04-05T04:15:53;99113.55;;;-3.84;65.08
57847;BME280;43675;50.030;21.952;2023-04-05T04:18:20;99117.54;;;-3.83;65.13
57847;BME280;43675;50.030;21.952;2023-04-05T04:20:46;99117.34;;;-3.83;65.05
57847;BME280;43675;50.030;21.952;2023-04-05T04:23:13;99121.86;;;-3.82;65.03
57847;BME280;43675;50.030;21.952;2023-04-05T04:25:39;99123.73;;;-3.81;65.08
57847;BME280;43675;50.030;21.952;2023-04-05T04:28:06;99127.42;;;-3.79;64.91
57847;BME280;43675;50.030;21.952;2023-04-05T04:30:32;99124.64;;;-3.70;64.86
57847;BME280;43675;50.030;21.952;2023-04-05T04:32:59;99128.81;;;-3.72;64.70
57847;BME280;43675;50.030;21.952;2023-04-05T04:35:27;99133.33;;;-3.74;64.61
57847;BME280;43675;50.030;21.952;2023-04-05T04:37:55;99133.69;;;-3.74;64.86
57847;BME280;43675;50.030;21.952;2023-04-05T04:40:35;99134.34;;;-3.71;64.86
57847;BME280;43675;50.030;21.952;2023-04-05T04:43:01;99136.29;;;-3.65;64.93
57847;BME280;43675;50.030;21.952;2023-04-05T04:45:28;99132.05;;;-3.48;64.93
57847;BME280;43675;50.030;21.952;2023-04-05T04:47:54;99132.35;;;-3.43;64.73
57847;BME280;43675;50.030;21.952;2023-04-05T04:50:20;99133.14;;;-3.40;64.74
57847;BME280;43675;50.030;21.952;2023-04-05T04:52:47;99133.96;;;-3.37;65.00
57847;BME280;43675;50.030;21.952;2023-04-05T04:55:13;99139.46;;;-3.30;65.09
57847;BME280;43675;50.030;21.952;2023-04-05T04:57:40;99137.96;;;-3.25;65.10
57847;BME280;43675;50.030;21.952;2023-04-05T05:00:08;99141.70;;;-3.19;65.05
57847;BME280;43675;50.030;21.952;2023-04-05T05:02:34;99140.09;;;-3.14;65.04
57847;BME280;43675;50.030;21.952;2023-04-05T05:05:01;99138.05;;;-3.10;65.12
57847;BME280;43675;50.030;21.952;2023-04-05T05:07:27;99137.85;;;-3.05;65.14
57847;BME280;43675;50.030;21.952;2023-04-05T05:09:54;99134.04;;;-3.01;65.23
57847;BME280;43675;50.030;21.952;2023-04-05T05:12:20;99131.18;;;-2.96;65.08
57847;BME280;43675;50.030;21.952;2023-04-05T05:14:47;99131.30;;;-2.89;65.31
57847;BME280;43675;50.030;21.952;2023-04-05T05:17:13;99131.09;;;-2.81;65.05
57847;BME280;43675;50.030;21.952;2023-04-05T05:19:40;99132.88;;;-2.75;65.19
57847;BME280;43675;50.030;21.952;2023-04-05T05:22:06;99136.98;;;-2.69;65.19
57847;BME280;43675;50.030;21.952;2023-04-05T05:24:32;99134.88;;;-2.63;65.00
57847;BME280;43675;50.030;21.952;2023-04-05T05:26:59;99133.85;;;-2.57;65.01
57847;BME280;43675;50.030;21.952;2023-04-05T05:29:25;99132.98;;;-2.50;65.00
57847;BME280;43675;50.030;21.952;2023-04-05T05:31:51;99134.36;;;-2.43;65.04
57847;BME280;43675;50.030;21.952;2023-04-05T05:34:18;99135.11;;;-2.37;64.94
57847;BME280;43675;50.030;21.952;2023-04-05T05:36:44;99135.00;;;-2.32;65.06
57847;BME280;43675;50.030;21.952;2023-04-05T05:39:11;99140.52;;;-2.26;65.13
57847;BME280;43675;50.030;21.952;2023-04-05T05:41:37;99137.85;;;-2.21;65.07
57847;BME280;43675;50.030;21.952;2023-04-05T05:44:04;99133.80;;;-2.15;65.05
57847;BME280;43675;50.030;21.952;2023-04-05T05:46:31;99132.60;;;-2.09;64.90
57847;BME280;43675;50.030;21.952;2023-04-05T05:48:57;99135.63;;;-2.03;65.06
57847;BME280;43675;50.030;21.952;2023-04-05T05:51:24;99129.83;;;-1.96;64.92
57847;BME280;43675;50.030;21.952;2023-04-05T05:53:50;99129.20;;;-1.88;64.91
57847;BME280;43675;50.030;21.952;2023-04-05T05:56:16;99131.19;;;-1.82;64.94
57847;BME280;43675;50.030;21.952;2023-04-05T05:58:43;99128.88;;;-1.80;64.89
57847;BME280;43675;50.030;21.952;2023-04-05T06:01:09;99129.14;;;-1.77;64.75
57847;BME280;43675;50.030;21.952;2023-04-05T06:03:36;99128.66;;;-1.73;64.48
57847;BME280;43675;50.030;21.952;2023-04-05T06:06:02;99127.92;;;-1.69;64.51
57847;BME280;43675;50.030;21.952;2023-04-05T06:08:29;99128.81;;;-1.61;64.61
57847;BME280;43675;50.030;21.952;2023-04-05T06:10:55;99128.42;;;-1.54;64.56
57847;BME280;43675;50.030;21.952;2023-04-05T06:13:22;99127.83;;;-1.49;64.47
57847;BME280;43675;50.030;21.952;2023-04-05T06:15:48;99125.85;;;-1.46;64.44
57847;BME280;43675;50.030;21.952;2023-04-05T06:18:15;99126.14;;;-1.44;64.29
57847;BME280;43675;50.030;21.952;2023-04-05T06:20:42;99128.03;;;-1.43;64.28
57847;BME280;43675;50.030;21.952;2023-04-05T06:23:11;99127.09;;;-1.40;64.55
57847;BME280;43675;50.030;21.952;2023-04-05T06:25:38;99135.45;;;-1.33;64.43
57847;BME280;43675;50.030;21.952;2023-04-05T06:28:05;99138.91;;;-1.26;64.48
57847;BME280;43675;50.030;21.952;2023-04-05T06:30:32;99143.45;;;-1.20;64.52
57847;BME280;43675;50.030;21.952;2023-04-05T06:32:59;99142.61;;;-1.20;64.36
57847;BME280;43675;50.030;21.952;2023-04-05T06:35:25;99142.48;;;-1.21;64.24
57847;BME280;43675;50.030;21.952;2023-04-05T06:37:52;99140.86;;;-1.18;64.41
57847;BME280;43675;50.030;21.952;2023-04-05T06:40:18;99141.48;;;-1.15;64.39
57847;BME280;43675;50.030;21.952;2023-04-05T06:42:44;99137.78;;;-1.13;64.39
57847;BME280;43675;50.030;21.952;2023-04-05T06:45:11;99135.65;;;-1.09;64.27
57847;BME280;43675;50.030;21.952;2023-04-05T06:47:38;99132.24;;;-1.04;64.24
57847;BME280;43675;50.030;21.952;2023-04-05T06:50:05;99131.02;;;-1.00;64.23
57847;BME280;43675;50.030;21.952;2023-04-05T06:52:32;99132.44;;;-0.94;64.39
57847;BME280;43675;50.030;21.952;2023-04-05T06:54:59;99131.66;;;-0.87;64.31
57847;BME280;43675;50.030;21.952;2023-04-05T06:57:26;99130.52;;;-0.81;64.15
57847;BME280;43675;50.030;21.952;2023-04-05T06:59:53;99129.05;;;-0.73;64.13
57847;BME280;43675;50.030;21.952;2023-04-05T07:02:20;99132.34;;;-0.65;64.02
57847;BME280;43675;50.030;21.952;2023-04-05T07:04:46;99133.10;;;-0.55;63.98
57847;BME280;43675;50.030;21.952;2023-04-05T07:07:13;99134.00;;;-0.43;64.20
57847;BME280;43675;50.030;21.952;2023-04-05T07:09:39;99132.80;;;-0.29;64.24
57847;BME280;43675;50.030;21.952;2023-04-05T07:12:06;99133.83;;;-0.16;64.06
57847;BME280;43675;50.030;21.952;2023-04-05T07:14:33;99135.65;;;-0.03;63.99
57847;BME280;43675;50.030;21.952;2023-04-05T07:17:00;99132.64;;;0.10;63.84
57847;BME280;43675;50.030;21.952;2023-04-05T07:19:27;99130.93;;;0.32;63.61
57847;BME280;43675;50.030;21.952;2023-04-05T07:21:55;99132.13;;;0.52;63.17
57847;BME280;43675;50.030;21.952;2023-04-05T07:24:21;99127.48;;;0.52;63.11
57847;BME280;43675;50.030;21.952;2023-04-05T07:26:48;99127.06;;;0.55;63.30
57847;BME280;43675;50.030;21.952;2023-04-05T07:29:14;99127.73;;;0.61;63.23
57847;BME280;43675;50.030;21.952;2023-04-05T07:31:41;99127.02;;;0.67;63.17
57847;BME280;43675;50.030;21.952;2023-04-05T07:34:07;99130.30;;;0.71;63.15
57847;BME280;43675;50.030;21.952;2023-04-05T07:36:33;99125.69;;;0.74;62.85
57847;BME280;43675;50.030;21.952;2023-04-05T07:39:00;99129.08;;;0.73;62.72
57847;BME280;43675;50.030;21.952;2023-04-05T07:41:27;99132.75;;;0.73;62.51
57847;BME280;43675;50.030;21.952;2023-04-05T07:43:54;99134.48;;;0.74;62.53
57847;BME280;43675;50.030;21.952;2023-04-05T07:46:20;99131.16;;;0.77;62.49
57847;BME280;43675;50.030;21.952;2023-04-05T07:48:46;99129.99;;;0.86;62.46
57847;BME280;43675;50.030;21.952;2023-04-05T07:51:13;99128.89;;;0.96;62.37
57847;BME280;43675;50.030;21.952;2023-04-05T07:53:39;99124.69;;;1.05;62.26
57847;BME280;43675;50.030;21.952;2023-04-05T07:56:06;99120.48;;;1.16;62.01
57847;BME280;43675;50.030;21.952;2023-04-05T07:58:33;99123.35;;;1.30;61.93
57847;BME280;43675;50.030;21.952;2023-04-05T08:01:03;99125.58;;;1.49;61.59
57847;BME280;43675;50.030;21.952;2023-04-05T08:03:30;99121.30;;;1.68;61.23
57847;BME280;43675;50.030;21.952;2023-04-05T08:05:57;99119.20;;;1.85;60.78
57847;BME280;43675;50.030;21.952;2023-04-05T08:08:23;99116.93;;;2.07;60.50
57847;BME280;43675;50.030;21.952;2023-04-05T08:10:50;99114.56;;;2.25;59.94
57847;BME280;43675;50.030;21.952;2023-04-05T08:13:16;99108.60;;;2.44;59.36
57847;BME280;43675;50.030;21.952;2023-04-05T08:15:42;99107.55;;;2.64;59.02
57847;BME280;43675;50.030;21.952;2023-04-05T08:18:09;99113.50;;;2.80;58.56
57847;BME280;43675;50.030;21.952;2023-04-05T08:20:37;99105.47;;;2.93;58.11
57847;BME280;43675;50.030;21.952;2023-04-05T08:23:04;99104.67;;;3.01;57.46
57847;BME280;43675;50.030;21.952;2023-04-05T08:25:30;99100.42;;;3.11;57.07
57847;BME280;43675;50.030;21.952;2023-04-05T08:27:56;99097.08;;;3.24;56.77
57847;BME280;43675;50.030;21.952;2023-04-05T08:30:23;99102.09;;;3.37;56.38
57847;BME280;43675;50.030;21.952;2023-04-05T08:32:49;99099.82;;;3.52;56.01
57847;BME280;43675;50.030;21.952;2023-04-05T08:35:16;99094.60;;;3.65;55.40
57847;BME280;43675;50.030;21.952;2023-04-05T08:37:42;99097.29;;;3.66;55.24
57847;BME280;43675;50.030;21.952;2023-04-05T08:40:08;99102.58;;;3.60;54.70
57847;BME280;43675;50.030;21.952;2023-04-05T08:42:36;99102.63;;;3.47;54.50
57847;BME280;43675;50.030;21.952;2023-04-05T08:45:08;99103.17;;;3.28;54.35
57847;BME280;43675;50.030;21.952;2023-04-05T08:47:35;99107.08;;;3.06;53.91
57847;BME280;43675;50.030;21.952;2023-04-05T08:50:02;99106.60;;;2.85;53.78
57847;BME280;43675;50.030;21.952;2023-04-05T08:52:29;99099.56;;;2.87;53.85
57847;BME280;43675;50.030;21.952;2023-04-05T08:54:56;99098.14;;;3.02;53.90
57847;BME280;43675;50.030;21.952;2023-04-05T08:57:25;99095.92;;;3.07;53.20
57847;BME280;43675;50.030;21.952;2023-04-05T08:59:54;99092.59;;;3.11;53.06
57847;BME280;43675;50.030;21.952;2023-04-05T09:02:21;99093.19;;;3.24;52.98
57847;BME280;43675;50.030;21.952;2023-04-05T09:04:48;99092.33;;;3.49;52.76
57847;BME280;43675;50.030;21.952;2023-04-05T09:07:15;99092.83;;;3.81;52.87
57847;BME280;43675;50.030;21.952;2023-04-05T09:09:47;99091.30;;;4.09;52.01
57847;BME280;43675;50.030;21.952;2023-04-05T09:12:14;99089.24;;;4.29;51.71
57847;BME280;43675;50.030;21.952;2023-04-05T09:14:41;99089.39;;;4.38;51.67
57847;BME280;43675;50.030;21.952;2023-04-05T09:17:08;99088.06;;;4.47;51.64
57847;BME280;43675;50.030;21.952;2023-04-05T09:19:35;99093.58;;;4.40;51.24
57847;BME280;43675;50.030;21.952;2023-04-05T09:22:05;99093.77;;;4.14;51.00
57847;BME280;43675;50.030;21.952;2023-04-05T09:24:32;99091.83;;;3.77;51.11
57847;BME280;43675;50.030;21.952;2023-04-05T09:27:06;99092.84;;;3.45;50.83
57847;BME280;43675;50.030;21.952;2023-04-05T09:29:33;99093.38;;;3.14;51.00
57847;BME280;43675;50.030;21.952;2023-04-05T09:32:00;99081.57;;;2.91;51.11
57847;BME280;43675;50.030;21.952;2023-04-05T09:34:28;99086.23;;;2.89;51.25
57847;BME280;43675;50.030;21.952;2023-04-05T09:36:54;99084.98;;;3.04;51.03
57847;BME280;43675;50.030;21.952;2023-04-05T09:39:26;99076.33;;;3.31;50.78
57847;BME280;43675;50.030;21.952;2023-04-05T09:44:54;99080.60;;;3.81;50.37
57847;BME280;43675;50.030;21.952;2023-04-05T09:47:25;99085.98;;;3.76;50.10
57847;BME280;43675;50.030;21.952;2023-04-05T09:49:52;99081.55;;;3.64;49.83
57847;BME280;43675;50.030;21.952;2023-04-05T09:52:22;99083.16;;;3.47;49.80
57847;BME280;43675;50.030;21.952;2023-04-05T09:54:49;99082.36;;;3.31;49.99
57847;BME280;43675;50.030;21.952;2023-04-05T09:57:16;99078.73;;;3.29;50.04
57847;BME280;43675;50.030;21.952;2023-04-05T09:59:43;99076.91;;;3.38;50.29
57847;BME280;43675;50.030;21.952;2023-04-05T10:02:10;99073.82;;;3.49;50.32
57847;BME280;43675;50.030;21.952;2023-04-05T10:04:46;99076.39;;;3.64;50.29
57847;BME280;43675;50.030;21.952;2023-04-05T10:07:13;99071.56;;;3.92;49.97
57847;BME280;43675;50.030;21.952;2023-04-05T10:09:40;99067.42;;;4.33;50.02
57847;BME280;43675;50.030;21.952;2023-04-05T10:12:07;99068.58;;;4.72;49.75
57847;BME280;43675;50.030;21.952;2023-04-05T10:14:34;99069.98;;;5.03;49.19
57847;BME280;43675;50.030;21.952;2023-04-05T10:17:08;99065.00;;;5.08;48.74
57847;BME280;43675;50.030;21.952;2023-04-05T10:22:22;99074.35;;;4.88;48.65
57847;BME280;43675;50.030;21.952;2023-04-05T10:24:51;99073.02;;;4.64;48.38
57847;BME280;43675;50.030;21.952;2023-04-05T10:27:24;99069.70;;;4.43;48.51
57847;BME280;43675;50.030;21.952;2023-04-05T10:29:57;99064.16;;;4.40;48.67
57847;BME280;43675;50.030;21.952;2023-04-05T10:35:08;99068.46;;;4.45;48.68
57847;BME280;43675;50.030;21.952;2023-04-05T10:37:40;99060.33;;;4.51;48.81
57847;BME280;43675;50.030;21.952;2023-04-05T10:40:08;99054.89;;;4.68;49.10
57847;BME280;43675;50.030;21.952;2023-04-05T10:42:41;99048.11;;;5.05;49.12
57847;BME280;43675;50.030;21.952;2023-04-05T10:45:09;99050.17;;;5.53;49.13
57847;BME280;43675;50.030;21.952;2023-04-05T10:48:22;99054.03;;;5.95;48.95
57847;BME280;43675;50.030;21.952;2023-04-05T10:50:26;99054.54;;;6.16;47.96
57847;BME280;43675;50.030;21.952;2023-04-05T10:52:53;99051.58;;;6.05;47.49
57847;BME280;43675;50.030;21.952;2023-04-05T10:55:21;99048.96;;;5.82;47.39
57847;BME280;43675;50.030;21.952;2023-04-05T10:57:48;99051.14;;;5.60;47.55
57847;BME280;43675;50.030;21.952;2023-04-05T11:00:15;99051.22;;;5.50;47.81
57847;BME280;43675;50.030;21.952;2023-04-05T11:02:42;99049.86;;;5.54;47.98
57847;BME280;43675;50.030;21.952;2023-04-05T11:08:11;99039.81;;;6.01;47.55
57847;BME280;43675;50.030;21.952;2023-04-05T11:10:37;99042.49;;;6.10;47.01
57847;BME280;43675;50.030;21.952;2023-04-05T11:13:07;99053.52;;;5.93;46.43
57847;BME280;43675;50.030;21.952;2023-04-05T11:15:33;99049.13;;;5.63;46.31
57847;BME280;43675;50.030;21.952;2023-04-05T11:20:43;99046.71;;;5.27;46.70
57847;BME280;43675;50.030;21.952;2023-04-05T11:23:10;99043.80;;;5.34;46.98
57847;BME280;43675;50.030;21.952;2023-04-05T11:25:37;99047.27;;;5.49;46.78
57847;BME280;43675;50.030;21.952;2023-04-05T11:28:04;99048.95;;;5.63;46.53
57847;BME280;43675;50.030;21.952;2023-04-05T11:30:47;99050.63;;;5.69;46.37
57847;BME280;43675;50.030;21.952;2023-04-05T11:35:59;99040.58;;;5.73;46.04
57847;BME280;43675;50.030;21.952;2023-04-05T11:38:26;99045.16;;;5.83;45.86
57847;BME280;43675;50.030;21.952;2023-04-05T11:40:57;99042.71;;;5.96;45.90
57847;BME280;43675;50.030;21.952;2023-04-05T11:43:30;99040.45;;;6.15;46.15
57847;BME280;43675;50.030;21.952;2023-04-05T11:45:56;99045.91;;;6.28;45.97
57847;BME280;43675;50.030;21.952;2023-04-05T11:48:27;99053.95;;;6.09;45.52
57847;BME280;43675;50.030;21.952;2023-04-05T11:50:53;99054.19;;;5.77;45.38
57847;BME280;43675;50.030;21.952;2023-04-05T11:53:20;99050.64;;;5.41;45.29
57847;BME280;43675;50.030;21.952;2023-04-05T11:55:47;99048.40;;;5.31;45.73
57847;BME280;43675;50.030;21.952;2023-04-05T11:58:15;99050.42;;;5.51;45.88
57847;BME280;43675;50.030;21.952;2023-04-05T12:00:41;99054.33;;;5.75;45.65
57847;BME280;43675;50.030;21.952;2023-04-05T12:03:12;99062.66;;;5.79;45.34
57847;BME280;43675;50.030;21.952;2023-04-05T12:05:51;99055.69;;;5.74;45.15
57847;BME280;43675;50.030;21.952;2023-04-05T12:08:18;99055.34;;;5.71;45.25
57847;BME280;43675;50.030;21.952;2023-04-05T12:10:57;99053.52;;;5.81;45.40
57847;BME280;43675;50.030;21.952;2023-04-05T12:13:27;99045.17;;;6.01;45.42
57847;BME280;43675;50.030;21.952;2023-04-05T12:16:03;99051.14;;;6.21;45.57
57847;BME280;43675;50.030;21.952;2023-04-05T12:18:30;99050.45;;;6.42;45.46
57847;BME280;43675;50.030;21.952;2023-04-05T12:20:57;99044.84;;;6.63;45.42
57847;BME280;43675;50.030;21.952;2023-04-05T12:23:24;99041.83;;;6.75;45.34
57847;BME280;43675;50.030;21.952;2023-04-05T12:25:52;99037.10;;;6.87;45.45
57847;BME280;43675;50.030;21.952;2023-04-05T12:28:18;99038.68;;;7.02;45.39
57847;BME280;43675;50.030;21.952;2023-04-05T12:30:52;99037.79;;;7.20;45.44
57847;BME280;43675;50.030;21.952;2023-04-05T12:33:29;99030.35;;;7.34;45.26
57847;BME280;43675;50.030;21.952;2023-04-05T12:35:55;99038.52;;;7.29;44.92
57847;BME280;43675;50.030;21.952;2023-04-05T12:38:25;99040.96;;;7.11;44.73
57847;BME280;43675;50.030;21.952;2023-04-05T12:40:52;99037.22;;;6.89;44.75
57847;BME280;43675;50.030;21.952;2023-04-05T12:43:19;99037.60;;;6.79;45.09
57847;BME280;43675;50.030;21.952;2023-04-05T12:45:45;99041.29;;;6.75;45.13
57847;BME280;43675;50.030;21.952;2023-04-05T12:48:12;99041.12;;;6.72;45.14
57847;BME280;43675;50.030;21.952;2023-04-05T12:50:43;99035.15;;;6.70;45.12
57847;BME280;43675;50.030;21.952;2023-04-05T12:53:17;99043.20;;;6.68;45.17
57847;BME280;43675;50.030;21.952;2023-04-05T12:55:46;99045.64;;;6.59;45.06
57847;BME280;43675;50.030;21.952;2023-04-05T12:58:13;99042.15;;;6.37;44.77
57847;BME280;43675;50.030;21.952;2023-04-05T13:00:39;99041.61;;;6.18;44.94
57847;BME280;43675;50.030;21.952;2023-04-05T13:03:13;99047.41;;;6.00;44.96
57847;BME280;43675;50.030;21.952;2023-04-05T13:05:40;99040.60;;;5.87;44.93
57847;BME280;43675;50.030;21.952;2023-04-05T13:08:06;99035.90;;;5.84;45.10
57847;BME280;43675;50.030;21.952;2023-04-05T13:10:32;99035.66;;;5.94;45.12
57847;BME280;43675;50.030;21.952;2023-04-05T13:12:59;99031.02;;;6.11;45.23
57847;BME280;43675;50.030;21.952;2023-04-05T13:15:25;99033.42;;;6.24;45.05
57847;BME280;43675;50.030;21.952;2023-04-05T13:17:52;99028.94;;;6.27;44.89
57847;BME280;43675;50.030;21.952;2023-04-05T13:20:20;99025.04;;;6.30;44.97
57847;BME280;43675;50.030;21.952;2023-04-05T13:22:47;99023.60;;;6.39;45.02
57847;BME280;43675;50.030;21.952;2023-04-05T13:25:13;99028.64;;;6.51;45.02